createdAt,value
2018-03-15T00:01:53.540Z,100513.69
2018-03-15T00:04:23.505Z,100515.44
2018-03-15T00:06:52.053Z,100517.62
2018-03-15T00:09:20.387Z,100507.61
2018-03-15T00:11:48.820Z,100512.80
2018-03-15T00:14:18.320Z,100506.23
2018-03-15T00:16:46.662Z,100507.98
2018-03-15T00:19:15.848Z,100502.73
2018-03-15T00:21:44.296Z,100504.91
2018-03-15T00:24:12.790Z,100504.42
2018-03-15T00:26:41.958Z,100502.70
2018-03-15T00:29:10.415Z,100495.23
2018-03-15T00:31:39.855Z,100496.56
2018-03-15T00:34:08.197Z,100496.53
2018-03-15T00:36:37.036Z,100491.33
2018-03-15T00:39:05.368Z,100490.48
2018-03-15T00:41:33.836Z,100488.73
2018-03-15T00:44:02.916Z,100485.70
2018-03-15T00:46:31.406Z,100483.02
2018-03-15T00:49:00.474Z,100480.42
2018-03-15T00:51:28.864Z,100476.91
2018-03-15T00:53:57.303Z,100472.56
2018-03-15T00:56:25.676Z,100473.41
2018-03-15T00:58:54.028Z,100469.00
2018-03-15T01:01:22.340Z,100463.31
2018-03-15T01:03:51.739Z,100458.48
2018-03-15T01:06:20.094Z,100465.48
2018-03-15T01:08:48.446Z,100456.33
2018-03-15T01:11:17.579Z,100457.61
2018-03-15T01:13:45.978Z,100452.80
2018-03-15T01:16:14.356Z,100457.20
2018-03-15T01:18:42.706Z,100455.02
2018-03-15T01:21:11.006Z,100454.56
2018-03-15T01:23:39.338Z,100450.64
2018-03-15T01:26:08.540Z,100444.08
2018-03-15T01:28:37.796Z,100442.75
2018-03-15T01:31:06.140Z,100436.21
2018-03-15T01:33:34.504Z,100436.67
2018-03-15T01:36:03.655Z,100434.45
2018-03-15T01:38:31.972Z,100432.30
2018-03-15T01:41:00.319Z,100429.23
2018-03-15T01:43:28.794Z,100434.88
2018-03-15T01:45:57.099Z,100432.25
2018-03-15T01:48:26.204Z,100419.61
2018-03-15T01:50:54.581Z,100426.13
2018-03-15T01:53:23.745Z,100415.23
2018-03-15T01:55:52.238Z,100416.09
2018-03-15T01:58:22.137Z,100401.77
2018-03-15T02:00:51.195Z,100396.99
2018-03-15T02:03:19.571Z,100398.27
2018-03-15T02:05:47.919Z,100392.16
2018-03-15T02:08:16.283Z,100393.47
2018-03-15T02:10:45.797Z,100393.94
2018-03-15T02:13:14.243Z,100395.22
2018-03-15T02:15:42.674Z,100396.05
2018-03-15T02:18:11.151Z,100385.15
2018-03-15T02:20:40.250Z,100390.81
2018-03-15T02:23:08.706Z,100390.83
2018-03-15T02:25:37.907Z,100387.37
2018-03-15T02:28:06.977Z,100383.87
2018-03-15T02:30:35.572Z,100382.14
2018-03-15T02:33:03.971Z,100381.73
2018-03-15T02:35:32.332Z,100379.94
2018-03-15T02:38:01.464Z,100379.47
2018-03-15T02:40:29.916Z,100382.48
2018-03-15T02:42:59.012Z,100380.75
2018-03-15T02:45:28.128Z,100377.70
2018-03-15T02:47:56.525Z,100377.68
2018-03-15T02:50:25.000Z,100379.87
2018-03-15T02:52:53.371Z,100385.53
2018-03-15T02:55:21.729Z,100381.15
2018-03-15T02:57:50.105Z,100378.12
2018-03-15T03:00:19.671Z,100382.45
2018-03-15T03:02:48.231Z,100376.80
2018-03-15T03:05:16.576Z,100375.45
2018-03-15T03:07:45.086Z,100378.98
2018-03-15T03:10:13.434Z,100381.56
2018-03-15T03:12:41.741Z,100385.10
2018-03-15T03:15:10.083Z,100381.56
2018-03-15T03:17:38.445Z,100378.09
2018-03-15T03:20:07.587Z,100374.16
2018-03-15T03:22:35.958Z,100370.23
2018-03-15T03:25:04.303Z,100368.95
2018-03-15T03:27:33.402Z,100366.75
2018-03-15T03:30:02.527Z,100371.58
2018-03-15T03:32:30.856Z,100360.25
2018-03-15T03:34:59.197Z,100366.75
2018-03-15T03:37:27.503Z,100360.66
2018-03-15T03:39:57.513Z,100361.48
2018-03-15T03:42:26.212Z,100367.59
2018-03-15T03:44:55.486Z,100370.20
2018-03-15T03:47:23.845Z,100368.03
2018-03-15T03:49:52.150Z,100365.01
2018-03-15T03:52:20.737Z,100354.53
2018-03-15T03:54:49.070Z,100364.56
2018-03-15T03:57:17.550Z,100361.94
2018-03-15T03:59:45.871Z,100363.26
2018-03-15T04:02:14.216Z,100365.89
2018-03-15T04:04:42.534Z,100365.00
2018-03-15T04:07:11.682Z,100361.95
2018-03-15T04:09:40.009Z,100361.95
2018-03-15T04:12:09.086Z,100358.41
2018-03-15T04:14:37.504Z,100360.16
2018-03-15T04:17:06.960Z,100364.08
2018-03-15T04:19:35.270Z,100334.39
2018-03-15T04:22:05.744Z,100368.47
2018-03-15T04:24:34.136Z,100369.31
2018-03-15T04:27:04.132Z,100362.35
2018-03-15T04:29:32.553Z,100365.40
2018-03-15T04:32:00.994Z,100362.35
2018-03-15T04:34:29.305Z,100362.80
2018-03-15T04:36:57.682Z,100365.84
2018-03-15T04:39:26.095Z,100369.30
2018-03-15T04:41:54.550Z,100367.54
2018-03-15T04:44:22.950Z,100365.41
2018-03-15T04:46:52.113Z,100377.22
2018-03-15T04:49:20.706Z,100374.15
2018-03-15T04:51:49.958Z,100372.36
2018-03-15T04:54:18.392Z,100369.35
2018-03-15T04:56:46.838Z,100375.88
2018-03-15T04:59:15.253Z,100381.59
2018-03-15T05:01:43.556Z,100376.35
2018-03-15T05:04:14.209Z,100376.78
2018-03-15T05:06:42.562Z,100384.66
2018-03-15T05:09:11.364Z,100379.41
2018-03-15T05:11:39.721Z,100383.75
2018-03-15T05:14:08.921Z,100385.48
2018-03-15T05:16:38.394Z,100377.64
2018-03-15T05:19:08.242Z,100382.02
2018-03-15T05:21:36.657Z,100385.53
2018-03-15T05:24:05.042Z,100382.05
2018-03-15T05:26:33.427Z,100381.64
2018-03-15T05:29:01.864Z,100372.45
2018-03-15T05:31:30.227Z,100379.86
2018-03-15T05:34:00.718Z,100373.81
2018-03-15T05:36:29.247Z,100373.38
2018-03-15T05:38:57.595Z,100374.72
2018-03-15T05:41:25.949Z,100379.50
2018-03-15T05:43:54.291Z,100372.43
2018-03-15T05:46:22.613Z,100374.19
2018-03-15T05:48:51.006Z,100373.76
2018-03-15T05:51:19.438Z,100378.53
2018-03-15T05:53:47.913Z,100373.37
2018-03-15T05:56:16.277Z,100374.67
2018-03-15T05:58:46.053Z,100375.98
2018-03-15T06:01:15.368Z,100380.81
2018-03-15T06:03:44.480Z,100381.69
2018-03-15T06:06:12.881Z,100385.14
2018-03-15T06:08:41.996Z,100384.23
2018-03-15T06:11:10.346Z,100387.33
2018-03-15T06:13:38.657Z,100377.37
2018-03-15T06:16:06.984Z,100371.36
2018-03-15T06:18:35.339Z,100384.32
2018-03-15T06:21:03.683Z,100374.70
2018-03-15T06:23:31.995Z,100377.80
2018-03-15T06:26:00.338Z,100379.13
2018-03-15T06:28:28.668Z,100380.89
2018-03-15T06:30:57.790Z,100388.77
2018-03-15T06:33:26.153Z,100387.03
2018-03-15T06:35:54.513Z,100393.55
2018-03-15T06:38:23.595Z,100397.45
2018-03-15T06:40:52.737Z,100390.13
2018-03-15T06:43:21.052Z,100391.88
2018-03-15T06:45:49.421Z,100395.86
2018-03-15T06:48:17.763Z,100400.64
2018-03-15T06:50:46.121Z,100403.69
2018-03-15T06:53:14.432Z,100402.00
2018-03-15T06:55:42.767Z,100399.75
2018-03-15T06:58:12.229Z,100401.05
2018-03-15T07:00:41.377Z,100403.66
2018-03-15T07:03:10.480Z,100401.09
2018-03-15T07:05:39.704Z,100402.84
2018-03-15T07:08:08.061Z,100401.56
2018-03-15T07:10:36.411Z,100402.87
2018-03-15T07:13:04.750Z,100407.67
2018-03-15T07:15:33.081Z,100405.47
2018-03-15T07:18:01.433Z,100404.62
2018-03-15T07:20:29.788Z,100403.75
2018-03-15T07:22:58.090Z,100405.07
2018-03-15T07:25:27.178Z,100402.44
2018-03-15T07:27:55.536Z,100407.66
2018-03-15T07:30:23.870Z,100409.83
2018-03-15T07:32:52.248Z,100405.01
2018-03-15T07:35:20.546Z,100405.44
2018-03-15T07:37:48.861Z,100403.67
2018-03-15T07:40:17.248Z,100412.48
2018-03-15T07:42:45.558Z,100406.37
2018-03-15T07:45:13.924Z,100415.10
2018-03-15T07:47:43.012Z,100412.47
2018-03-15T07:50:12.133Z,100409.39
2018-03-15T07:52:40.443Z,100403.73
2018-03-15T07:55:08.787Z,100404.60
2018-03-15T07:57:37.082Z,100406.78
2018-03-15T08:00:05.446Z,100403.30
2018-03-15T08:02:34.539Z,100404.61
2018-03-15T08:05:02.868Z,100405.91
2018-03-15T08:07:31.228Z,100406.37
2018-03-15T08:09:59.567Z,100410.30
2018-03-15T08:12:27.887Z,100407.69
2018-03-15T08:14:56.256Z,100409.86
2018-03-15T08:17:24.590Z,100406.81
2018-03-15T08:19:52.939Z,100408.95
2018-03-15T08:22:21.300Z,100410.27
2018-03-15T08:24:49.624Z,100416.84
2018-03-15T08:27:17.940Z,100407.66
2018-03-15T08:29:47.053Z,100402.87
2018-03-15T08:32:15.399Z,100408.91
2018-03-15T08:34:43.713Z,100400.67
2018-03-15T08:37:12.072Z,100395.87
2018-03-15T08:39:40.435Z,100395.42
2018-03-15T08:42:08.811Z,100383.16
2018-03-15T08:44:37.152Z,100385.79
2018-03-15T08:47:08.009Z,100381.45
2018-03-15T08:49:36.390Z,100374.42
2018-03-15T08:52:04.686Z,100377.95
2018-03-15T08:54:33.031Z,100346.95
2018-03-15T08:57:01.772Z,100366.94
2018-03-15T08:59:30.723Z,100373.44
2018-03-15T09:01:59.112Z,100365.13
2018-03-15T09:04:27.477Z,100367.81
2018-03-15T09:06:55.827Z,100364.28
2018-03-15T09:09:24.928Z,100364.95
2018-03-15T09:11:54.138Z,100362.37
2018-03-15T09:14:22.712Z,100362.33
2018-03-15T09:16:51.476Z,100366.96
2018-03-15T09:19:20.586Z,100364.01
2018-03-15T09:21:48.925Z,100363.13
2018-03-15T09:24:17.737Z,100362.66
2018-03-15T09:26:46.810Z,100347.81
2018-03-15T09:29:15.180Z,100351.73
2018-03-15T09:31:43.565Z,100351.66
2018-03-15T09:34:11.911Z,100354.77
2018-03-15T09:36:40.568Z,100349.04
2018-03-15T09:39:08.952Z,100340.77
2018-03-15T09:41:37.279Z,100346.67
2018-03-15T09:44:05.624Z,100332.33
2018-03-15T09:46:33.994Z,100346.36
2018-03-15T09:49:02.371Z,100342.83
2018-03-15T09:51:30.719Z,100339.03
2018-03-15T09:53:59.855Z,100336.66
2018-03-15T09:56:28.192Z,100341.81
2018-03-15T09:58:57.328Z,100336.17
2018-03-15T10:01:25.702Z,100333.20
2018-03-15T10:03:54.087Z,100328.67
2018-03-15T10:06:22.398Z,100326.83
2018-03-15T10:08:50.753Z,100325.39
2018-03-15T10:11:19.104Z,100319.37
2018-03-15T10:13:47.480Z,100308.97
2018-03-15T10:16:15.820Z,100305.39
2018-03-15T10:18:44.916Z,100302.02
2018-03-15T10:21:14.058Z,100308.28
2018-03-15T10:23:42.413Z,100306.83
2018-03-15T10:26:10.779Z,100302.94
2018-03-15T10:28:39.897Z,100302.05
2018-03-15T10:31:08.265Z,100294.69
2018-03-15T10:33:38.531Z,100294.16
2018-03-15T10:36:06.923Z,100286.97
2018-03-15T10:38:35.247Z,100278.77
2018-03-15T10:41:03.616Z,100277.92
2018-03-15T10:43:32.041Z,100283.20
2018-03-15T10:46:00.415Z,100281.66
2018-03-15T10:48:28.794Z,100282.31
2018-03-15T10:50:57.115Z,100283.83
2018-03-15T10:53:26.244Z,100281.84
2018-03-15T10:55:54.591Z,100279.26
2018-03-15T10:58:23.345Z,100270.64
2018-03-15T11:00:57.242Z,100274.90
2018-03-15T11:03:31.206Z,100267.25
2018-03-15T11:06:05.759Z,100258.16
2018-03-15T11:08:36.080Z,100255.65
2018-03-15T11:11:04.418Z,100263.38
2018-03-15T11:13:33.548Z,100261.10
2018-03-15T11:16:01.881Z,100262.09
2018-03-15T11:18:30.233Z,100259.95
2018-03-15T11:20:58.547Z,100248.94
2018-03-15T11:23:27.665Z,100257.43
2018-03-15T11:25:56.072Z,100246.56
2018-03-15T11:28:24.425Z,100244.80
2018-03-15T11:30:52.955Z,100239.98
2018-03-15T11:33:21.309Z,100232.14
2018-03-15T11:35:49.647Z,100230.89
2018-03-15T11:38:18.023Z,100217.88
2018-03-15T11:40:46.382Z,100218.30
2018-03-15T11:43:15.523Z,100212.31
2018-03-15T11:45:43.884Z,100204.04
2018-03-15T11:48:12.265Z,100176.98
2018-03-15T11:50:40.616Z,100193.35
2018-03-15T11:53:09.782Z,100184.97
2018-03-15T11:55:38.147Z,100184.24
2018-03-15T11:58:06.701Z,100189.55
2018-03-15T12:00:35.025Z,100175.16
2018-03-15T12:03:03.416Z,100189.36
2018-03-15T12:05:31.803Z,100176.42
2018-03-15T12:08:00.175Z,100177.90
2018-03-15T12:10:29.268Z,100165.23
2018-03-15T12:12:57.629Z,100163.13
2018-03-15T12:15:25.984Z,100158.70
2018-03-15T12:17:54.450Z,100157.52
2018-03-15T12:20:22.797Z,100159.37
2018-03-15T12:22:51.879Z,100156.08
2018-03-15T12:25:20.234Z,100151.15
2018-03-15T12:27:48.655Z,100136.08
2018-03-15T12:30:17.754Z,100131.80
2018-03-15T12:32:46.846Z,100129.60
2018-03-15T12:35:15.974Z,100133.11
2018-03-15T12:37:45.061Z,100120.58
2018-03-15T12:40:13.632Z,100113.14
2018-03-15T12:42:44.230Z,100122.36
2018-03-15T12:45:12.634Z,100117.12
2018-03-15T12:47:41.088Z,100105.63
2018-03-15T12:50:09.577Z,100099.75
2018-03-15T12:52:37.902Z,100102.81
2018-03-15T12:55:06.237Z,100101.17
2018-03-15T12:57:34.626Z,100096.70
2018-03-15T13:00:03.720Z,100111.11
2018-03-15T13:02:32.800Z,100105.69
2018-03-15T13:05:01.152Z,100103.78
2018-03-15T13:07:29.456Z,100103.52
2018-03-15T13:09:58.948Z,100094.41
2018-03-15T13:12:27.313Z,100106.06
2018-03-15T13:14:55.626Z,100109.00
2018-03-15T13:17:25.104Z,100109.70
2018-03-15T13:19:53.462Z,100116.11
2018-03-15T13:22:21.826Z,100113.47
2018-03-15T13:24:50.156Z,100114.96
2018-03-15T13:27:19.272Z,100111.95
2018-03-15T13:29:47.616Z,100118.09
2018-03-15T13:32:16.714Z,100121.34
2018-03-15T13:34:45.059Z,100121.36
2018-03-15T13:37:13.466Z,100115.91
2018-03-15T13:39:41.788Z,100122.16
2018-03-15T13:42:10.153Z,100116.89
2018-03-15T13:44:38.480Z,100112.30
2018-03-15T13:47:06.840Z,100112.17
2018-03-15T13:49:35.186Z,100124.22
2018-03-15T13:52:03.565Z,100114.25
2018-03-15T13:54:32.643Z,100123.17
2018-03-15T13:57:01.759Z,100118.09
2018-03-15T13:59:30.095Z,100124.58
2018-03-15T14:01:59.199Z,100126.70
2018-03-15T14:04:27.614Z,100114.95
2018-03-15T14:06:55.927Z,100114.34
2018-03-15T14:09:24.289Z,100111.77
2018-03-15T14:11:52.626Z,100118.10
2018-03-15T14:14:22.078Z,100100.59
2018-03-15T14:16:50.448Z,100099.34
2018-03-15T14:19:18.796Z,100109.76
2018-03-15T14:21:47.113Z,100101.02
2018-03-15T14:24:15.455Z,100098.80
2018-03-15T14:26:43.793Z,100093.67
2018-03-15T14:29:12.190Z,100092.90
2018-03-15T14:31:40.500Z,100085.36
2018-03-15T14:34:08.848Z,100074.34
2018-03-15T14:36:38.310Z,100068.19
2018-03-15T14:39:06.656Z,100062.86
2018-03-15T14:41:35.065Z,100059.61
2018-03-15T14:44:03.405Z,100044.31
2018-03-15T14:46:31.760Z,100053.05
2018-03-15T14:49:00.899Z,100050.19
2018-03-15T14:51:40.665Z,100051.25
2018-03-15T14:54:09.040Z,100045.95
2018-03-15T14:56:37.365Z,100040.64
2018-03-15T14:59:07.257Z,100043.16
2018-03-15T15:01:42.583Z,100039.45
2018-03-15T15:04:10.977Z,100036.19
2018-03-15T15:06:40.237Z,100033.27
2018-03-15T15:09:09.018Z,100029.56
2018-03-15T15:11:37.380Z,100029.52
2018-03-15T15:14:05.761Z,100035.37
2018-03-15T15:16:34.123Z,100030.34
2018-03-15T15:19:03.044Z,100034.09
2018-03-15T15:21:32.549Z,100046.99
2018-03-15T15:24:01.895Z,100040.52
2018-03-15T15:26:30.236Z,100037.29
2018-03-15T15:28:58.556Z,100038.25
2018-03-15T15:31:28.094Z,100040.88
2018-03-15T15:33:56.480Z,100031.80
2018-03-15T15:36:25.617Z,100034.30
2018-03-15T15:38:53.930Z,100039.58
2018-03-15T15:41:23.069Z,100035.05
2018-03-15T15:43:51.389Z,100044.45
2018-03-15T15:46:20.121Z,100035.27
2018-03-15T15:48:48.456Z,100038.12
2018-03-15T15:51:16.909Z,100036.95
2018-03-15T15:53:47.680Z,100046.45
2018-03-15T15:56:16.241Z,100045.31
2018-03-15T15:58:45.646Z,100046.02
2018-03-15T16:01:14.086Z,100044.94
2018-03-15T16:03:42.527Z,100042.70
2018-03-15T16:06:10.854Z,100045.25
2018-03-15T16:08:40.015Z,100048.55
2018-03-15T16:11:08.675Z,100053.87
2018-03-15T16:13:37.864Z,100046.58
2018-03-15T16:16:07.044Z,100041.88
2018-03-15T16:18:35.386Z,100039.50
2018-03-15T16:21:05.236Z,100049.88
2018-03-15T16:23:34.140Z,100044.77
2018-03-15T16:26:03.621Z,100046.70
2018-03-15T16:28:31.968Z,100040.20
2018-03-15T16:31:00.465Z,100053.37
2018-03-15T16:33:29.115Z,100045.11
2018-03-15T16:35:58.439Z,100045.88
2018-03-15T16:38:26.814Z,100049.64
2018-03-15T16:40:56.024Z,100044.95
2018-03-15T16:43:24.339Z,100048.13
2018-03-15T16:45:54.224Z,100052.55
2018-03-15T16:48:23.057Z,100053.47
2018-03-15T16:50:52.490Z,100059.09
2018-03-15T16:53:20.872Z,100058.31
2018-03-15T16:55:49.840Z,100068.76
2018-03-15T16:58:18.260Z,100067.83
2018-03-15T17:00:46.991Z,100068.22
2018-03-15T17:03:17.096Z,100074.44
2018-03-15T17:05:49.861Z,100083.61
2018-03-15T17:08:19.088Z,100092.34
2018-03-15T17:10:48.176Z,100084.95
2018-03-15T17:13:17.948Z,100090.23
2018-03-15T17:15:47.195Z,100092.02
2018-03-15T17:18:16.834Z,100088.09
2018-03-15T17:20:45.339Z,100094.20
2018-03-15T17:23:13.703Z,100095.94
2018-03-15T17:25:42.592Z,100091.58
2018-03-15T17:28:11.096Z,100097.28
2018-03-15T17:30:40.296Z,100096.84
2018-03-15T17:33:10.221Z,100088.09
2018-03-15T17:35:38.627Z,100100.71
2018-03-15T17:38:07.733Z,100088.09
2018-03-15T17:40:37.084Z,100095.03
2018-03-15T17:43:05.475Z,100094.59
2018-03-15T17:45:34.732Z,100092.41
2018-03-15T17:48:03.239Z,100100.28
2018-03-15T17:50:31.609Z,100091.98
2018-03-15T17:52:59.955Z,100093.77
2018-03-15T17:55:28.595Z,100097.66
2018-03-15T17:57:57.284Z,100099.88
2018-03-15T18:00:26.047Z,100094.20
2018-03-15T18:02:54.468Z,100092.05
2018-03-15T18:05:23.652Z,100096.34
2018-03-15T18:07:52.063Z,100095.94
2018-03-15T18:10:20.410Z,100098.53
2018-03-15T18:12:48.844Z,100098.16
2018-03-15T18:15:17.811Z,100090.73
2018-03-15T18:17:47.550Z,100085.47
2018-03-15T18:20:16.727Z,100088.11
2018-03-15T18:22:46.034Z,100092.45
2018-03-15T18:25:15.401Z,100088.12
2018-03-15T18:27:44.387Z,100080.70
2018-03-15T18:30:13.524Z,100075.39
2018-03-15T18:32:41.899Z,100079.39
2018-03-15T18:35:10.801Z,100082.91
2018-03-15T18:37:40.408Z,100093.36
2018-03-15T18:40:08.861Z,100082.00
2018-03-15T18:42:37.194Z,100083.31
2018-03-15T18:45:05.647Z,100077.17
2018-03-15T18:47:34.427Z,100078.88
2018-03-15T18:50:03.828Z,100071.56
2018-03-15T18:52:33.110Z,100079.88
2018-03-15T18:55:01.579Z,100073.31
2018-03-15T18:57:30.787Z,100066.36
2018-03-15T18:59:59.127Z,100069.84
2018-03-15T19:02:27.487Z,100074.20
2018-03-15T19:04:55.819Z,100077.70
2018-03-15T19:07:24.264Z,100078.14
2018-03-15T19:09:54.182Z,100073.77
2018-03-15T19:12:22.516Z,100075.92
2018-03-15T19:14:53.123Z,100080.31
2018-03-15T19:17:22.954Z,100078.14
2018-03-15T19:19:51.961Z,100083.78
2018-03-15T19:22:20.309Z,100082.50
2018-03-15T19:24:49.759Z,100072.46
2018-03-15T19:27:18.147Z,100075.92
2018-03-15T19:29:46.470Z,100078.57
2018-03-15T19:32:14.819Z,100073.77
2018-03-15T19:34:44.619Z,100075.08
2018-03-15T19:37:14.463Z,100071.59
2018-03-15T19:39:43.656Z,100073.34
2018-03-15T19:42:12.233Z,100083.37
2018-03-15T19:44:41.259Z,100088.20
2018-03-15T19:47:09.577Z,100075.52
2018-03-15T19:49:37.939Z,100078.58
2018-03-15T19:52:06.578Z,100091.64
2018-03-15T19:54:34.955Z,100087.70
2018-03-15T19:57:03.283Z,100085.52
2018-03-15T19:59:31.759Z,100090.35
2018-03-15T20:02:00.087Z,100083.81
2018-03-15T20:04:29.171Z,100070.28
2018-03-15T20:06:59.304Z,100076.83
2018-03-15T20:09:27.649Z,100067.22
2018-03-15T20:11:56.027Z,100061.12
2018-03-15T20:14:24.498Z,100065.05
2018-03-15T20:16:53.241Z,100058.06
2018-03-15T20:19:23.396Z,100058.47
2018-03-15T20:21:51.724Z,100057.16
2018-03-15T20:24:25.590Z,100058.03
2018-03-15T20:26:53.944Z,100050.17
2018-03-15T20:29:22.931Z,100044.50
2018-03-15T20:31:51.315Z,100043.63
2018-03-15T20:34:19.692Z,100041.88
2018-03-15T20:36:48.026Z,100041.45
2018-03-15T20:39:22.714Z,100034.50
2018-03-15T20:41:51.051Z,100043.66
2018-03-15T20:44:19.423Z,100040.17
2018-03-15T20:46:53.402Z,100042.32
2018-03-15T20:49:22.521Z,100041.88
2018-03-15T20:51:52.194Z,100038.36
2018-03-15T20:54:20.559Z,100034.43
2018-03-15T20:56:49.205Z,100030.57
2018-03-15T20:59:17.644Z,100030.57
2018-03-15T21:01:45.969Z,100034.50
2018-03-15T21:04:14.297Z,100031.88
2018-03-15T21:06:42.654Z,100032.72
2018-03-15T21:09:11.030Z,100017.95
2018-03-15T21:11:39.385Z,100022.31
2018-03-15T21:14:07.694Z,100030.60
2018-03-15T21:16:36.070Z,100029.73
2018-03-15T21:19:04.432Z,100026.23
2018-03-15T21:21:32.749Z,100031.48
2018-03-15T21:24:01.891Z,100041.51
2018-03-15T21:26:30.218Z,100028.86
2018-03-15T21:28:58.546Z,100037.58
2018-03-15T21:31:26.954Z,100031.91
2018-03-15T21:33:55.261Z,100032.34
2018-03-15T21:36:24.969Z,100029.29
2018-03-15T21:38:54.055Z,100031.03
2018-03-15T21:41:23.171Z,100029.30
2018-03-15T21:43:51.531Z,100026.23
2018-03-15T21:46:20.634Z,100020.13
2018-03-15T21:48:49.735Z,100016.20
2018-03-15T21:51:18.074Z,100016.23
2018-03-15T21:53:46.481Z,100013.18
2018-03-15T21:56:15.604Z,100010.59
2018-03-15T21:58:43.938Z,100013.64
2018-03-15T22:01:12.846Z,100017.13
2018-03-15T22:03:41.961Z,100005.80
2018-03-15T22:06:10.293Z,100010.18
2018-03-15T22:08:38.616Z,100001.89
2018-03-15T22:11:07.742Z,100001.89
2018-03-15T22:13:36.076Z,99994.89
2018-03-15T22:16:04.420Z,99992.77
2018-03-15T22:18:32.742Z,99984.50
2018-03-15T22:21:01.075Z,99980.58
2018-03-15T22:23:29.417Z,99988.86
2018-03-15T22:25:57.762Z,99988.45
2018-03-15T22:28:26.086Z,99986.22
2018-03-15T22:30:54.443Z,99984.49
2018-03-15T22:33:22.766Z,99980.56
2018-03-15T22:35:51.122Z,99990.61
2018-03-15T22:38:19.452Z,99988.86
2018-03-15T22:40:47.792Z,99979.68
2018-03-15T22:43:16.104Z,99982.75
2018-03-15T22:45:44.445Z,99991.91
2018-03-15T22:48:12.761Z,99988.86
2018-03-15T22:50:41.109Z,99983.20
2018-03-15T22:53:09.431Z,99983.19
2018-03-15T22:55:37.810Z,99984.06
2018-03-15T22:58:06.124Z,99971.88
2018-03-15T23:00:34.486Z,99973.20
2018-03-15T23:03:02.820Z,99960.98
2018-03-15T23:05:31.128Z,99961.87
2018-03-15T23:07:59.475Z,99972.77
2018-03-15T23:10:27.859Z,99967.09
2018-03-15T23:12:56.185Z,99967.10
2018-03-15T23:15:24.590Z,99962.73
2018-03-15T23:17:53.681Z,99964.04
2018-03-15T23:20:22.012Z,99974.94
2018-03-15T23:22:50.382Z,99956.66
2018-03-15T23:25:18.717Z,99972.77
2018-03-15T23:27:47.849Z,99959.23
2018-03-15T23:30:16.212Z,99950.13
2018-03-15T23:32:44.557Z,99948.36
2018-03-15T23:35:12.915Z,99946.20
2018-03-15T23:37:41.274Z,99941.84
2018-03-15T23:40:09.610Z,99934.00
2018-03-15T23:42:38.729Z,99937.92
2018-03-15T23:45:07.063Z,99936.61
2018-03-15T23:47:35.396Z,99935.73
2018-03-15T23:50:03.731Z,99937.89
2018-03-15T23:52:32.804Z,99948.77
2018-03-15T23:55:01.210Z,99942.25
2018-03-15T23:57:29.957Z,99942.69
2018-03-15T23:59:58.316Z,99943.99
